Time;durP1;ratioP1;P1;durP2;ratioP2;P2;SDS_P1;SDS_P2;PMS_P1;PMS_P2;Temp;Humidity;BMP_temperature;BMP_pressure;BME280_temperature;BME280_humidity;BME280_pressure;Samples;Min_cycle;Max_cycle;Signal;HPM_P1;HPM_P2
2022/11/18 00:01:16;;;;;;;;;1.00;1.00;;;;;;;;4938569;28;45761;-73
2022/11/18 00:03:41;;;;;;;;;0.00;0.00;;;;;;;;4937085;28;45499;-71
2022/11/18 00:06:09;;;;;;;;;1.00;1.00;;;;;;;;4947831;28;45396;-73
2022/11/18 00:08:34;;;;;;;;;1.33;1.33;;;;;;;;4935932;28;45589;-71
2022/11/18 00:11:04;;;;;;;;;3.33;1.00;;;;;;;;4934331;28;45751;-73
2022/11/18 00:16:12;;;;;;;;;1.00;1.00;;;;;;;;4929079;28;45666;-77
2022/11/18 00:18:38;;;;;;;;;2.33;1.33;;;;;;;;4925672;28;45448;-72
2022/11/18 00:21:04;;;;;;;;;2.00;1.00;;;;;;;;4929672;28;45760;-71
2022/11/18 00:23:30;;;;;;;;;2.33;1.00;;;;;;;;4925088;28;45837;-71
2022/11/18 00:26:00;;;;;;;;;2.00;2.00;;;;;;;;4933265;28;45454;-74
2022/11/18 00:28:25;;;;;;;;;1.00;1.00;;;;;;;;4939149;28;45771;-71
2022/11/18 00:30:50;;;;;;;;;1.00;1.00;;;;;;;;4919267;28;45860;-72
2022/11/18 00:33:16;;;;;;;;;2.67;2.33;;;;;;;;4939457;28;45404;-72
2022/11/18 00:35:41;;;;;;;;;1.00;1.00;;;;;;;;4919812;28;48752;-73
2022/11/18 00:38:06;;;;;;;;;1.00;1.00;;;;;;;;4925488;28;45761;-70
2022/11/18 00:40:31;;;;;;;;;1.00;0.00;;;;;;;;4935415;28;45750;-72
2022/11/18 00:42:56;;;;;;;;;1.33;0.00;;;;;;;;4919061;28;45452;-71
2022/11/18 00:45:22;;;;;;;;;1.00;1.00;;;;;;;;4926416;28;45558;-72
2022/11/18 00:47:47;;;;;;;;;4.00;2.00;;;;;;;;4922718;28;45419;-71
2022/11/18 00:50:13;;;;;;;;;1.00;1.00;;;;;;;;4914625;28;45843;-72
2022/11/18 00:52:38;;;;;;;;;1.00;0.00;;;;;;;;4919801;28;45911;-70
2022/11/18 00:55:03;;;;;;;;;1.00;1.00;;;;;;;;4914778;28;46403;-72
2022/11/18 00:57:29;;;;;;;;;3.00;2.00;;;;;;;;4919593;28;45460;-71
2022/11/18 00:59:54;;;;;;;;;1.00;1.00;;;;;;;;4918656;28;45593;-72
2022/11/18 01:02:19;;;;;;;;;1.67;1.00;;;;;;;;4922984;28;45631;-72
2022/11/18 01:04:45;;;;;;;;;5.00;2.00;;;;;;;;4918213;28;45794;-71
2022/11/18 01:07:10;;;;;;;;;2.67;1.33;;;;;;;;4929917;28;45486;-71
2022/11/18 01:09:35;;;;;;;;;0.67;0.67;;;;;;;;4919376;28;45503;-72
2022/11/18 01:14:44;;;;;;;;;2.33;1.33;;;;;;;;4918320;28;45698;-71
2022/11/18 01:17:09;;;;;;;;;1.00;1.00;;;;;;;;4921171;28;45471;-72
2022/11/18 01:19:35;;;;;;;;;1.67;1.67;;;;;;;;4925889;28;45535;-73
2022/11/18 01:22:01;;;;;;;;;0.00;0.00;;;;;;;;4915939;28;46877;-72
2022/11/18 01:24:30;;;;;;;;;0.33;0.33;;;;;;;;4916228;28;45469;-72
2022/11/18 01:26:56;;;;;;;;;2.00;2.00;;;;;;;;4920716;28;45378;-72
2022/11/18 01:29:21;;;;;;;;;1.33;0.67;;;;;;;;4931701;28;46215;-72
2022/11/18 01:31:46;;;;;;;;;1.00;1.00;;;;;;;;4928228;28;45633;-73
2022/11/18 01:34:11;;;;;;;;;0.00;0.00;;;;;;;;4925201;28;45448;-72
2022/11/18 01:36:37;;;;;;;;;2.00;1.00;;;;;;;;4934588;28;45742;-71
2022/11/18 01:39:02;;;;;;;;;1.00;1.00;;;;;;;;4924964;28;45694;-71
2022/11/18 01:41:27;;;;;;;;;1.00;1.00;;;;;;;;4922999;28;45802;-73
2022/11/18 01:43:56;;;;;;;;;2.33;1.00;;;;;;;;4917144;28;45527;-73
2022/11/18 01:46:22;;;;;;;;;0.67;0.67;;;;;;;;4930379;28;45421;-71
2022/11/18 01:48:55;;;;;;;;;0.67;0.00;;;;;;;;4918013;28;45538;-72
2022/11/18 01:51:25;;;;;;;;;0.00;0.00;;;;;;;;4925443;28;45542;-71
2022/11/18 01:53:53;;;;;;;;;1.00;1.00;;;;;;;;4935100;28;45633;-72
2022/11/18 01:56:22;;;;;;;;;0.33;0.33;;;;;;;;4925572;28;45728;-71
2022/11/18 01:58:51;;;;;;;;;1.00;0.00;;;;;;;;4929228;28;45369;-72
2022/11/18 02:01:17;;;;;;;;;0.00;0.00;;;;;;;;4932507;28;45718;-72
2022/11/18 02:03:43;;;;;;;;;1.33;1.00;;;;;;;;4930920;28;45478;-72
2022/11/18 02:06:10;;;;;;;;;0.00;0.00;;;;;;;;4930930;28;45368;-71
2022/11/18 02:08:36;;;;;;;;;0.67;0.67;;;;;;;;4930237;28;45520;-72
2022/11/18 02:11:02;;;;;;;;;0.00;0.00;;;;;;;;4931550;28;45270;-72
2022/11/18 02:13:27;;;;;;;;;0.33;0.00;;;;;;;;4932084;28;46749;-72
2022/11/18 02:16:14;;;;;;;;;0.00;0.00;;;;;;;;4933327;28;45426;-70
2022/11/18 02:18:42;;;;;;;;;1.00;0.00;;;;;;;;4917780;28;45631;-71
2022/11/18 02:21:26;;;;;;;;;0.00;0.00;;;;;;;;4934112;28;46203;-71
2022/11/18 02:24:10;;;;;;;;;2.00;0.00;;;;;;;;4929770;28;45771;-71
2022/11/18 02:26:53;;;;;;;;;0.00;0.00;;;;;;;;4930712;28;45402;-73
2022/11/18 02:29:25;;;;;;;;;1.00;1.00;;;;;;;;4938795;28;45305;-72
2022/11/18 02:31:53;;;;;;;;;0.00;0.00;;;;;;;;4910011;28;46364;-71
2022/11/18 02:34:21;;;;;;;;;0.00;0.00;;;;;;;;4925929;28;46989;-72
2022/11/18 02:36:51;;;;;;;;;0.00;0.00;;;;;;;;4927543;28;45746;-72
2022/11/18 02:39:20;;;;;;;;;1.00;0.00;;;;;;;;4928029;28;45416;-71
2022/11/18 02:41:48;;;;;;;;;0.33;0.33;;;;;;;;4917854;28;45921;-71
2022/11/18 02:44:15;;;;;;;;;0.67;0.00;;;;;;;;4932582;28;45848;-71
2022/11/18 02:46:41;;;;;;;;;0.67;0.00;;;;;;;;4913988;28;45432;-70
2022/11/18 02:49:11;;;;;;;;;2.00;0.00;;;;;;;;4931825;28;45601;-71
2022/11/18 02:51:37;;;;;;;;;0.00;0.00;;;;;;;;4924703;28;47460;-71
2022/11/18 02:54:05;;;;;;;;;0.00;0.00;;;;;;;;4926023;28;45434;-71
2022/11/18 02:56:32;;;;;;;;;1.00;0.00;;;;;;;;4929654;28;45493;-72
2022/11/18 02:58:57;;;;;;;;;0.00;0.00;;;;;;;;4929151;28;45376;-71
2022/11/18 03:01:25;;;;;;;;;0.67;0.00;;;;;;;;4941678;28;45743;-72
2022/11/18 03:03:50;;;;;;;;;0.00;0.00;;;;;;;;4930174;28;45492;-70
2022/11/18 03:06:26;;;;;;;;;0.00;0.00;;;;;;;;4906247;28;45517;-69
2022/11/18 03:08:55;;;;;;;;;0.00;0.00;;;;;;;;4936857;28;45361;-71
2022/11/18 03:11:22;;;;;;;;;3.00;0.00;;;;;;;;4936564;28;45409;-72
2022/11/18 03:13:50;;;;;;;;;1.00;0.00;;;;;;;;4934679;28;47037;-71
2022/11/18 03:16:19;;;;;;;;;1.00;0.00;;;;;;;;4925946;28;45381;-71
2022/11/18 03:18:50;;;;;;;;;0.00;0.00;;;;;;;;4937277;28;45477;-69
2022/11/18 03:21:18;;;;;;;;;0.67;0.33;;;;;;;;4935729;28;45397;-70
2022/11/18 03:23:56;;;;;;;;;0.00;0.00;;;;;;;;4928351;28;46004;-70
2022/11/18 03:26:25;;;;;;;;;1.00;0.00;;;;;;;;4938214;28;45440;-71
2022/11/18 03:29:03;;;;;;;;;0.67;0.67;;;;;;;;4930028;28;45305;-72
2022/11/18 03:31:31;;;;;;;;;0.00;0.00;;;;;;;;4922298;28;45506;-72
2022/11/18 03:34:08;;;;;;;;;0.00;0.00;;;;;;;;4931065;28;45456;-71
2022/11/18 03:36:36;;;;;;;;;0.00;0.00;;;;;;;;4933952;28;45325;-72
2022/11/18 03:39:04;;;;;;;;;0.00;0.00;;;;;;;;4933943;28;45627;-71
2022/11/18 03:41:31;;;;;;;;;0.33;0.33;;;;;;;;4936641;28;45749;-71
2022/11/18 03:44:05;;;;;;;;;0.00;0.00;;;;;;;;4935841;28;45349;-71
2022/11/18 03:46:30;;;;;;;;;0.67;0.33;;;;;;;;4933275;28;45492;-72
2022/11/18 03:48:57;;;;;;;;;0.00;0.00;;;;;;;;4936037;28;45365;-70
2022/11/18 03:51:28;;;;;;;;;2.00;0.00;;;;;;;;4924375;28;45701;-71
2022/11/18 03:53:59;;;;;;;;;0.00;0.00;;;;;;;;4914670;28;47910;-71
2022/11/18 03:56:29;;;;;;;;;0.00;0.00;;;;;;;;4929159;28;45636;-70
2022/11/18 03:59:09;;;;;;;;;0.00;0.00;;;;;;;;4936027;28;45752;-71
2022/11/18 04:01:43;;;;;;;;;0.33;0.33;;;;;;;;4924562;28;46564;-73
2022/11/18 04:04:09;;;;;;;;;0.00;0.00;;;;;;;;4927424;28;46699;-71
2022/11/18 04:06:37;;;;;;;;;0.00;0.00;;;;;;;;4916025;28;45682;-71
2022/11/18 04:09:17;;;;;;;;;0.00;0.00;;;;;;;;4932847;28;45943;-71
2022/11/18 04:12:01;;;;;;;;;1.00;0.00;;;;;;;;4933129;28;46603;-70
2022/11/18 04:14:27;;;;;;;;;2.00;0.00;;;;;;;;4933752;28;45643;-72
2022/11/18 04:16:53;;;;;;;;;0.00;0.00;;;;;;;;4934349;28;45332;-71
2022/11/18 04:19:18;;;;;;;;;1.00;0.00;;;;;;;;4935009;28;45373;-71
2022/11/18 04:21:44;;;;;;;;;2.00;0.33;;;;;;;;4934414;28;46228;-72
2022/11/18 04:24:10;;;;;;;;;1.00;0.00;;;;;;;;4936172;28;46534;-70
2022/11/18 04:26:35;;;;;;;;;0.67;0.33;;;;;;;;4929584;28;45388;-70
2022/11/18 04:29:00;;;;;;;;;0.00;0.00;;;;;;;;4920263;28;45679;-71
2022/11/18 04:31:25;;;;;;;;;1.67;1.00;;;;;;;;4934623;28;45603;-71
2022/11/18 04:33:51;;;;;;;;;0.00;0.00;;;;;;;;4935389;28;46010;-71
2022/11/18 04:36:16;;;;;;;;;3.00;0.00;;;;;;;;4918821;28;45473;-72
2022/11/18 04:38:41;;;;;;;;;0.00;0.00;;;;;;;;4930367;28;45337;-72
2022/11/18 04:41:06;;;;;;;;;0.67;0.67;;;;;;;;4927954;28;45402;-71
2022/11/18 04:43:32;;;;;;;;;0.00;0.00;;;;;;;;4935569;28;45474;-73
2022/11/18 04:45:57;;;;;;;;;0.00;0.00;;;;;;;;4935666;28;45414;-71
2022/11/18 04:48:22;;;;;;;;;0.00;0.00;;;;;;;;4933910;28;45662;-71
2022/11/18 04:50:48;;;;;;;;;2.00;0.00;;;;;;;;4924309;28;45855;-71
2022/11/18 04:53:13;;;;;;;;;0.33;0.33;;;;;;;;4917751;28;46578;-71
2022/11/18 04:55:38;;;;;;;;;2.00;0.33;;;;;;;;4934118;28;45571;-71
2022/11/18 04:58:03;;;;;;;;;0.00;0.00;;;;;;;;4925448;28;45420;-72
2022/11/18 05:00:29;;;;;;;;;2.00;1.00;;;;;;;;4930160;28;45575;-72
2022/11/18 05:02:54;;;;;;;;;1.00;1.00;;;;;;;;4932115;28;45408;-71
2022/11/18 05:05:19;;;;;;;;;0.67;0.67;;;;;;;;4922487;28;45487;-72
2022/11/18 05:07:44;;;;;;;;;1.67;1.33;;;;;;;;4935256;28;45789;-71
2022/11/18 05:10:10;;;;;;;;;1.67;1.00;;;;;;;;4934744;28;45490;-71
2022/11/18 05:12:47;;;;;;;;;2.00;0.33;;;;;;;;4939102;28;47007;-70
2022/11/18 05:15:13;;;;;;;;;1.00;1.00;;;;;;;;4928717;28;45465;-70
2022/11/18 05:17:38;;;;;;;;;2.00;1.00;;;;;;;;4937149;28;45808;-72
2022/11/18 05:20:03;;;;;;;;;1.00;1.00;;;;;;;;4931810;28;46405;-71
2022/11/18 05:22:28;;;;;;;;;1.00;1.00;;;;;;;;4934605;28;46107;-71
2022/11/18 05:24:54;;;;;;;;;1.33;1.33;;;;;;;;4905518;28;45629;-71
2022/11/18 05:27:19;;;;;;;;;5.67;2.00;;;;;;;;4931979;28;45676;-71
2022/11/18 05:29:44;;;;;;;;;1.00;1.00;;;;;;;;4930695;28;45338;-72
2022/11/18 05:32:10;;;;;;;;;3.00;1.00;;;;;;;;4931016;28;45364;-71
2022/11/18 05:34:35;;;;;;;;;2.33;2.33;;;;;;;;4917808;28;45281;-70
2022/11/18 05:37:00;;;;;;;;;5.00;2.00;;;;;;;;4934024;28;45737;-70
2022/11/18 05:39:25;;;;;;;;;3.67;1.00;;;;;;;;4931700;28;45674;-72
2022/11/18 05:44:34;;;;;;;;;2.00;1.00;;;;;;;;4925910;28;45629;-70
2022/11/18 05:47:00;;;;;;;;;5.33;4.00;;;;;;;;4918032;28;45327;-71
2022/11/18 05:49:25;;;;;;;;;3.67;1.67;;;;;;;;4930443;28;45385;-70
2022/11/18 05:51:50;;;;;;;;;2.00;1.00;;;;;;;;4929384;28;45982;-72
2022/11/18 05:54:17;;;;;;;;;4.00;4.00;;;;;;;;4917118;28;45457;-70
2022/11/18 05:56:45;;;;;;;;;3.00;1.00;;;;;;;;4915072;28;45453;-72
2022/11/18 05:59:12;;;;;;;;;3.00;2.00;;;;;;;;4917215;28;46765;-70
2022/11/18 06:04:12;;;;;;;;;1.67;1.00;;;;;;;;4918159;28;45688;-69
2022/11/18 06:06:37;;;;;;;;;1.00;1.00;;;;;;;;4924323;28;45427;-72
2022/11/18 06:09:03;;;;;;;;;2.00;2.00;;;;;;;;4927050;28;45424;-71
2022/11/18 06:11:31;;;;;;;;;5.33;1.00;;;;;;;;4922697;28;45517;-70
2022/11/18 06:14:05;;;;;;;;;1.00;1.00;;;;;;;;4903186;28;45352;-70
2022/11/18 06:16:32;;;;;;;;;3.33;1.00;;;;;;;;4927600;28;46497;-70
2022/11/18 06:18:57;;;;;;;;;1.00;1.00;;;;;;;;4928789;28;45343;-74
2022/11/18 06:21:23;;;;;;;;;2.00;2.00;;;;;;;;4927808;28;46462;-71
2022/11/18 06:23:48;;;;;;;;;2.00;1.00;;;;;;;;4924763;28;45397;-70
2022/11/18 06:26:15;;;;;;;;;4.00;2.33;;;;;;;;4924347;28;45404;-70
2022/11/18 06:28:41;;;;;;;;;5.00;2.33;;;;;;;;4933721;28;45704;-71
2022/11/18 06:31:07;;;;;;;;;3.67;2.00;;;;;;;;4932939;28;46162;-70
2022/11/18 06:33:32;;;;;;;;;5.00;3.67;;;;;;;;4927304;28;45699;-70
2022/11/18 06:35:57;;;;;;;;;3.00;1.00;;;;;;;;4928645;28;45605;-70
2022/11/18 06:38:23;;;;;;;;;4.00;3.00;;;;;;;;4932087;28;46590;-69
2022/11/18 06:40:49;;;;;;;;;3.00;3.00;;;;;;;;4925836;28;46099;-72
2022/11/18 06:43:47;;;;;;;;;3.67;3.00;;;;;;;;4933737;28;45826;-70
2022/11/18 06:48:54;;;;;;;;;4.33;2.00;;;;;;;;4933706;28;45502;-68
2022/11/18 06:51:19;;;;;;;;;5.67;3.67;;;;;;;;4933820;28;45789;-71
2022/11/18 06:53:44;;;;;;;;;8.67;5.00;;;;;;;;4933593;28;45789;-71
2022/11/18 06:56:11;;;;;;;;;4.00;2.67;;;;;;;;4931285;28;45394;-68
2022/11/18 06:58:37;;;;;;;;;5.33;3.00;;;;;;;;4931551;28;45913;-71
2022/11/18 07:01:16;;;;;;;;;1.00;1.00;;;;;;;;4924802;28;45631;-73
2022/11/18 07:03:42;;;;;;;;;8.00;2.33;;;;;;;;4930424;28;45415;-71
2022/11/18 07:06:08;;;;;;;;;4.67;2.00;;;;;;;;4924822;28;45498;-71
2022/11/18 07:08:36;;;;;;;;;8.00;4.67;;;;;;;;4925768;28;45957;-72
2022/11/18 07:11:04;;;;;;;;;6.67;2.00;;;;;;;;4930569;28;45653;-71
2022/11/18 07:13:29;;;;;;;;;2.33;2.33;;;;;;;;4923401;28;45797;-71
2022/11/18 07:15:54;;;;;;;;;2.00;1.00;;;;;;;;4924334;28;45671;-71
2022/11/18 07:18:20;;;;;;;;;4.33;2.00;;;;;;;;4926498;28;45957;-71
2022/11/18 07:20:45;;;;;;;;;3.00;1.33;;;;;;;;4925077;28;46020;-72
2022/11/18 07:23:10;;;;;;;;;2.67;1.00;;;;;;;;4924940;28;45555;-71
2022/11/18 07:25:36;;;;;;;;;1.00;1.00;;;;;;;;4927284;28;45699;-71
2022/11/18 07:28:01;;;;;;;;;7.00;2.33;;;;;;;;4913468;28;46037;-71
2022/11/18 07:30:26;;;;;;;;;4.00;3.00;;;;;;;;4928386;28;46069;-70
2022/11/18 07:32:51;;;;;;;;;4.00;1.00;;;;;;;;4909989;28;45791;-72
2022/11/18 07:35:17;;;;;;;;;5.67;5.67;;;;;;;;4910653;28;45660;-70
2022/11/18 07:37:43;;;;;;;;;4.67;2.00;;;;;;;;4927164;28;45750;-70
2022/11/18 07:40:08;;;;;;;;;3.00;1.00;;;;;;;;4928038;28;45629;-70
2022/11/18 07:42:41;;;;;;;;;3.00;2.00;;;;;;;;4928558;28;45512;-72
2022/11/18 07:45:08;;;;;;;;;2.67;1.67;;;;;;;;4928510;28;45746;-70
2022/11/18 07:47:33;;;;;;;;;4.33;3.33;;;;;;;;4914746;28;46632;-71
2022/11/18 07:49:58;;;;;;;;;2.33;2.33;;;;;;;;4931110;28;45964;-71
2022/11/18 07:52:23;;;;;;;;;5.33;3.00;;;;;;;;4933051;28;45850;-72
2022/11/18 07:54:49;;;;;;;;;3.67;2.00;;;;;;;;4925626;28;45858;-71
2022/11/18 07:57:14;;;;;;;;;3.00;1.67;;;;;;;;4934737;28;45762;-71
2022/11/18 07:59:39;;;;;;;;;6.00;4.33;;;;;;;;4931226;28;45807;-72
2022/11/18 08:02:05;;;;;;;;;6.00;4.67;;;;;;;;4924308;28;45675;-74
2022/11/18 08:04:30;;;;;;;;;2.00;2.00;;;;;;;;4922426;28;45746;-73
2022/11/18 08:06:55;;;;;;;;;5.00;2.67;;;;;;;;4914992;28;47100;-72
2022/11/18 08:09:21;;;;;;;;;4.00;2.00;;;;;;;;4929359;28;45664;-71
2022/11/18 08:11:46;;;;;;;;;5.00;3.00;;;;;;;;4924432;28;45662;-70
2022/11/18 08:14:11;;;;;;;;;5.67;3.00;;;;;;;;4935387;28;45785;-72
2022/11/18 08:16:37;;;;;;;;;7.00;3.33;;;;;;;;4931094;28;45680;-71
2022/11/18 08:19:02;;;;;;;;;2.00;1.00;;;;;;;;4916517;28;46842;-71
2022/11/18 08:21:27;;;;;;;;;7.00;3.00;;;;;;;;4927517;28;45713;-71
2022/11/18 08:23:54;;;;;;;;;4.00;3.00;;;;;;;;4927886;28;45691;-73
2022/11/18 08:26:20;;;;;;;;;1.67;1.00;;;;;;;;4927428;28;45800;-71
2022/11/18 08:28:46;;;;;;;;;5.00;2.33;;;;;;;;4932799;28;46603;-73
2022/11/18 08:31:12;;;;;;;;;4.00;2.33;;;;;;;;4928465;28;45457;-71
2022/11/18 08:33:38;;;;;;;;;2.67;1.33;;;;;;;;4926678;28;45680;-74
2022/11/18 08:36:13;;;;;;;;;2.67;2.00;;;;;;;;4935663;28;45353;-70
2022/11/18 08:38:39;;;;;;;;;4.00;3.00;;;;;;;;4929450;28;45780;-73
2022/11/18 08:41:06;;;;;;;;;4.00;2.33;;;;;;;;4915548;28;45717;-71
2022/11/18 08:43:31;;;;;;;;;4.67;3.00;;;;;;;;4944782;28;45719;-72
2022/11/18 08:45:56;;;;;;;;;5.00;3.00;;;;;;;;4922709;28;45808;-71
2022/11/18 08:48:22;;;;;;;;;3.33;2.00;;;;;;;;4914452;28;46596;-70
2022/11/18 08:50:47;;;;;;;;;0.67;0.67;;;;;;;;4932285;28;45904;-70
2022/11/18 08:53:14;;;;;;;;;0.67;0.67;;;;;;;;4925588;28;45360;-71
2022/11/18 08:55:39;;;;;;;;;2.67;1.33;;;;;;;;4921248;28;45423;-71
2022/11/18 08:58:04;;;;;;;;;3.00;2.33;;;;;;;;4918684;28;45678;-72
2022/11/18 09:00:29;;;;;;;;;3.00;3.00;;;;;;;;4906072;28;45950;-72
2022/11/18 09:02:54;;;;;;;;;5.00;2.00;;;;;;;;4930109;28;45806;-71
2022/11/18 09:05:20;;;;;;;;;1.00;1.00;;;;;;;;4925436;28;45680;-72
2022/11/18 09:07:45;;;;;;;;;2.00;1.00;;;;;;;;4915686;28;46065;-72
2022/11/18 09:10:10;;;;;;;;;3.00;2.00;;;;;;;;4932870;28;45555;-73
2022/11/18 09:12:35;;;;;;;;;1.50;1.50;;;;;;;;4933268;28;45413;-72
2022/11/18 09:15:01;;;;;;;;;1.25;1.25;;;;;;;;4930283;28;45463;-73
2022/11/18 09:17:26;;;;;;;;;1.50;1.50;;;;;;;;4937247;28;46042;-72
2022/11/18 09:19:51;;;;;;;;;1.00;0.00;;;;;;;;4931584;28;46032;-72
2022/11/18 09:22:17;;;;;;;;;1.75;1.75;;;;;;;;4933916;28;45448;-71
2022/11/18 09:24:42;;;;;;;;;1.00;1.00;;;;;;;;4929067;28;45484;-72
2022/11/18 09:29:39;;;;;;;;;1.75;0.50;;;;;;;;4926512;28;45891;-66
2022/11/18 09:32:04;;;;;;;;;1.75;1.75;;;;;;;;4928571;28;45834;-66
2022/11/18 09:34:29;;;;;;;;;4.00;1.25;;;;;;;;4917866;28;45662;-64
2022/11/18 09:36:55;;;;;;;;;2.00;1.00;;;;;;;;4934778;28;45566;-64
2022/11/18 09:39:24;;;;;;;;;3.75;2.50;;;;;;;;4920157;28;46041;-65
2022/11/18 09:41:55;;;;;;;;;1.00;1.00;;;;;;;;4933513;28;45752;-65
2022/11/18 09:44:20;;;;;;;;;1.50;0.75;;;;;;;;4914062;28;46231;-63
2022/11/18 09:47:04;;;;;;;;;4.25;1.75;;;;;;;;4912952;28;47033;-65
2022/11/18 09:49:37;;;;;;;;;2.00;1.25;;;;;;;;4934005;28;45396;-64
2022/11/18 09:52:23;;;;;;;;;0.50;0.00;;;;;;;;4926549;28;45816;-64
2022/11/18 09:54:48;;;;;;;;;0.00;0.00;;;;;;;;4897936;28;45972;-63
2022/11/18 09:57:19;;;;;;;;;1.75;0.50;;;;;;;;4930439;28;45431;-65
2022/11/18 09:59:44;;;;;;;;;5.00;2.00;;;;;;;;4933281;28;45821;-65
2022/11/18 10:02:28;;;;;;;;;1.00;1.00;;;;;;;;4930471;28;45884;-66
2022/11/18 10:04:54;;;;;;;;;2.50;0.75;;;;;;;;4922471;28;45577;-65
2022/11/18 10:07:21;;;;;;;;;2.00;1.00;;;;;;;;4925576;28;46025;-66
2022/11/18 10:09:47;;;;;;;;;2.00;1.00;;;;;;;;4913472;28;46048;-65
2022/11/18 10:12:13;;;;;;;;;2.00;0.75;;;;;;;;4927807;28;45517;-65
2022/11/18 10:14:41;;;;;;;;;0.50;0.50;;;;;;;;4930904;28;45494;-65
2022/11/18 10:17:12;;;;;;;;;2.00;0.75;;;;;;;;4932504;28;46760;-65
2022/11/18 10:19:41;;;;;;;;;0.50;0.50;;;;;;;;4927481;28;45877;-65
2022/11/18 10:22:18;;;;;;;;;1.50;0.50;;;;;;;;4939074;28;45425;-64
2022/11/18 10:25:10;;;;;;;;;3.00;1.00;;;;;;;;4916788;28;45743;-67
2022/11/18 10:27:39;;;;;;;;;1.00;0.00;;;;;;;;4926562;28;46273;-64
2022/11/18 10:30:15;;;;;;;;;3.00;1.25;;;;;;;;4924895;28;45595;-65
2022/11/18 10:32:57;;;;;;;;;1.25;1.00;;;;;;;;4930339;28;45904;-64
2022/11/18 10:35:26;;;;;;;;;2.25;1.50;;;;;;;;4912597;28;45916;-64
2022/11/18 10:38:00;;;;;;;;;0.50;0.50;;;;;;;;4923969;28;45915;-63
2022/11/18 10:40:27;;;;;;;;;1.25;1.25;;;;;;;;4924111;28;45258;-65
2022/11/18 10:42:52;;;;;;;;;0.75;0.25;;;;;;;;4918678;28;45434;-63
2022/11/18 10:45:30;;;;;;;;;1.00;1.00;;;;;;;;4920054;28;45854;-63
2022/11/18 10:47:59;;;;;;;;;1.00;0.00;;;;;;;;4929746;28;46437;-66
2022/11/18 10:50:53;;;;;;;;;1.00;1.00;;;;;;;;4930072;28;45855;-65
2022/11/18 10:53:32;;;;;;;;;0.50;0.00;;;;;;;;4903811;28;45822;-66
2022/11/18 10:55:59;;;;;;;;;1.75;0.00;;;;;;;;4929506;28;45544;-65
2022/11/18 10:58:25;;;;;;;;;1.25;0.00;;;;;;;;4920088;28;46582;-65
2022/11/18 11:00:51;;;;;;;;;0.00;0.00;;;;;;;;4919670;28;45428;-65
2022/11/18 11:03:21;;;;;;;;;0.00;0.00;;;;;;;;4926540;28;45389;-65
2022/11/18 11:05:47;;;;;;;;;1.75;1.00;;;;;;;;4919495;28;46399;-66
2022/11/18 11:08:19;;;;;;;;;1.50;1.50;;;;;;;;4934857;28;45690;-66
2022/11/18 11:10:57;;;;;;;;;0.00;0.00;;;;;;;;4924871;28;45896;-66
2022/11/18 11:13:26;;;;;;;;;1.00;1.00;;;;;;;;4920561;28;45450;-66
2022/11/18 11:15:54;;;;;;;;;1.00;1.00;;;;;;;;4915546;28;46728;-67
2022/11/18 11:18:40;;;;;;;;;0.50;0.50;;;;;;;;4916039;28;46388;-67
2022/11/18 11:21:09;;;;;;;;;2.00;1.00;;;;;;;;4908342;28;45852;-66
2022/11/18 11:23:34;;;;;;;;;1.00;1.00;;;;;;;;4934214;28;45813;-67
2022/11/18 11:26:02;;;;;;;;;3.75;1.00;;;;;;;;4927686;28;45507;-65
2022/11/18 11:28:33;;;;;;;;;1.00;1.00;;;;;;;;4924092;28;45858;-66
2022/11/18 11:31:07;;;;;;;;;2.75;1.00;;;;;;;;4935502;28;45429;-66
2022/11/18 11:33:33;;;;;;;;;0.50;0.50;;;;;;;;4912559;28;45456;-65
2022/11/18 11:36:18;;;;;;;;;2.00;2.00;;;;;;;;4921814;28;45915;-64
2022/11/18 11:38:43;;;;;;;;;0.25;0.25;;;;;;;;4916465;28;45447;-66
2022/11/18 11:41:21;;;;;;;;;1.00;1.00;;;;;;;;4923332;28;45528;-66
2022/11/18 11:43:46;;;;;;;;;0.25;0.00;;;;;;;;4944323;28;45737;-65
2022/11/18 11:46:30;;;;;;;;;1.00;1.00;;;;;;;;4935201;28;45385;-67
2022/11/18 11:48:56;;;;;;;;;2.00;1.00;;;;;;;;4925821;28;45792;-68
2022/11/18 11:51:41;;;;;;;;;0.00;0.00;;;;;;;;4935945;28;45415;-66
2022/11/18 11:54:26;;;;;;;;;0.00;0.00;;;;;;;;4928648;28;45673;-67
2022/11/18 11:56:54;;;;;;;;;0.00;0.00;;;;;;;;4929864;28;45461;-65
2022/11/18 11:59:39;;;;;;;;;1.75;1.00;;;;;;;;4932960;28;45755;-67
2022/11/18 12:02:13;;;;;;;;;1.00;1.00;;;;;;;;4942439;28;47142;-67
2022/11/18 12:04:43;;;;;;;;;1.00;0.00;;;;;;;;4921264;28;45346;-66
2022/11/18 12:07:28;;;;;;;;;1.00;1.00;;;;;;;;4927656;28;45524;-66
2022/11/18 12:10:05;;;;;;;;;0.00;0.00;;;;;;;;4930987;28;45448;-65
2022/11/18 12:12:33;;;;;;;;;1.25;0.25;;;;;;;;4914621;28;45877;-73
2022/11/18 12:15:02;;;;;;;;;0.00;0.00;;;;;;;;4933877;28;45806;-75
2022/11/18 12:17:42;;;;;;;;;1.50;0.00;;;;;;;;4915586;28;45719;-72
2022/11/18 12:20:26;;;;;;;;;2.00;0.00;;;;;;;;4936087;28;45675;-73
2022/11/18 12:23:13;;;;;;;;;0.00;0.00;;;;;;;;4926695;28;45806;-73
2022/11/18 12:25:47;;;;;;;;;0.00;0.00;;;;;;;;4928394;28;45805;-71
2022/11/18 12:28:21;;;;;;;;;0.00;0.00;;;;;;;;4927924;28;45827;-73
2022/11/18 12:30:47;;;;;;;;;0.50;0.50;;;;;;;;4931150;28;45849;-71
2022/11/18 12:33:14;;;;;;;;;1.25;0.00;;;;;;;;4919051;28;45719;-73
2022/11/18 12:35:45;;;;;;;;;2.50;0.50;;;;;;;;4934767;28;45762;-72
2022/11/18 12:38:26;;;;;;;;;1.75;0.00;;;;;;;;4932262;28;45839;-72
2022/11/18 12:40:51;;;;;;;;;0.50;0.50;;;;;;;;4935639;28;46747;-73
2022/11/18 12:46:28;;;;;;;;;1.00;0.67;;;;;;;;4917805;28;45420;-73
2022/11/18 12:48:54;;;;;;;;;1.00;0.00;;;;;;;;4921081;28;45630;-73
2022/11/18 12:51:23;;;;;;;;;1.00;1.00;;;;;;;;4937207;28;45717;-72
2022/11/18 12:53:49;;;;;;;;;0.67;0.00;;;;;;;;4931466;28;45927;-71
2022/11/18 12:56:22;;;;;;;;;0.50;0.50;;;;;;;;4923563;28;45952;-71
2022/11/18 12:58:51;;;;;;;;;0.00;0.00;;;;;;;;4930635;28;45424;-73
2022/11/18 13:01:18;;;;;;;;;2.25;0.75;;;;;;;;4927067;28;46329;-73
2022/11/18 13:03:43;;;;;;;;;2.00;0.00;;;;;;;;4924589;28;45523;-73
2022/11/18 13:06:27;;;;;;;;;0.25;0.25;;;;;;;;4933789;28;45872;-73
2022/11/18 13:08:54;;;;;;;;;1.00;1.00;;;;;;;;4931594;28;45656;-73
2022/11/18 13:19:32;;;;;;;;;1.00;0.75;;;;;;;;4923314;28;45881;-72
2022/11/18 13:24:43;;;;;;;;;1.50;1.00;;;;;;;;4924147;28;45600;-72
2022/11/18 13:27:15;;;;;;;;;3.00;0.00;;;;;;;;4933975;28;45693;-73
2022/11/18 13:29:58;;;;;;;;;1.00;1.00;;;;;;;;4929266;28;46758;-73
2022/11/18 13:32:27;;;;;;;;;2.25;1.00;;;;;;;;4929479;28;46485;-72
2022/11/18 13:34:54;;;;;;;;;2.00;0.50;;;;;;;;4924212;28;45470;-74
2022/11/18 13:37:21;;;;;;;;;1.00;1.00;;;;;;;;4932988;28;45765;-71
2022/11/18 13:39:47;;;;;;;;;2.00;0.00;;;;;;;;4927418;28;45232;-71
2022/11/18 13:42:23;;;;;;;;;1.00;1.00;;;;;;;;4931427;28;46125;-72
2022/11/18 13:44:53;;;;;;;;;0.75;0.00;;;;;;;;4933185;28;45365;-73
2022/11/18 13:47:25;;;;;;;;;2.00;0.00;;;;;;;;4933301;28;45969;-74
2022/11/18 13:49:50;;;;;;;;;0.33;0.33;;;;;;;;4939512;28;45904;-75
2022/11/18 13:52:27;;;;;;;;;1.50;0.50;;;;;;;;4943208;28;46225;-73
2022/11/18 13:54:54;;;;;;;;;0.50;0.00;;;;;;;;4914252;28;45688;-73
2022/11/18 13:57:21;;;;;;;;;2.00;0.75;;;;;;;;4919137;28;45868;-73
2022/11/18 13:59:48;;;;;;;;;0.00;0.00;;;;;;;;4916478;28;45778;-72
2022/11/18 14:02:15;;;;;;;;;0.00;0.00;;;;;;;;4937953;28;46117;-72
2022/11/18 14:04:52;;;;;;;;;0.00;0.00;;;;;;;;4930388;28;45801;-73
2022/11/18 14:07:20;;;;;;;;;3.33;2.00;;;;;;;;4933213;28;45771;-72
2022/11/18 14:09:53;;;;;;;;;1.50;1.00;;;;;;;;4929206;28;47585;-73
2022/11/18 14:12:18;;;;;;;;;1.00;0.00;;;;;;;;4929633;28;46528;-71
2022/11/18 14:14:44;;;;;;;;;0.50;0.50;;;;;;;;4934796;28;45733;-72
2022/11/18 14:17:15;;;;;;;;;1.00;1.00;;;;;;;;4923109;28;45916;-74
2022/11/18 14:19:41;;;;;;;;;2.00;0.00;;;;;;;;4925139;28;45393;-73
2022/11/18 14:22:12;;;;;;;;;0.50;0.00;;;;;;;;4930310;28;45913;-73
2022/11/18 14:24:37;;;;;;;;;1.00;1.00;;;;;;;;4928030;28;45608;-73
2022/11/18 14:27:21;;;;;;;;;4.50;2.00;;;;;;;;4925489;28;45409;-73
2022/11/18 14:29:49;;;;;;;;;0.00;0.00;;;;;;;;4925593;28;45947;-72
2022/11/18 14:32:15;;;;;;;;;2.00;0.33;;;;;;;;4931412;28;46917;-73
2022/11/18 14:34:40;;;;;;;;;0.50;0.50;;;;;;;;4929467;28;45514;-69
2022/11/18 14:37:13;;;;;;;;;1.00;1.00;;;;;;;;4927462;28;45637;-71
2022/11/18 14:39:39;;;;;;;;;5.00;2.00;;;;;;;;4906335;28;46442;-69
2022/11/18 14:42:05;;;;;;;;;1.33;0.67;;;;;;;;4932068;28;46279;-71
2022/11/18 14:44:31;;;;;;;;;0.50;0.25;;;;;;;;4932482;28;46230;-72
2022/11/18 14:46:56;;;;;;;;;0.00;0.00;;;;;;;;4929962;28;45770;-75
2022/11/18 14:49:22;;;;;;;;;1.00;1.00;;;;;;;;4926165;28;45561;-73
2022/11/18 14:51:48;;;;;;;;;0.75;0.00;;;;;;;;4926918;28;45444;-73
2022/11/18 14:54:17;;;;;;;;;2.25;1.50;;;;;;;;4925505;28;45688;-74
2022/11/18 14:56:43;;;;;;;;;3.75;1.50;;;;;;;;4928046;28;46621;-71
2022/11/18 14:59:12;;;;;;;;;1.00;1.00;;;;;;;;4920271;28;45697;-70
2022/11/18 15:01:38;;;;;;;;;2.25;0.75;;;;;;;;4932851;28;46016;-73
2022/11/18 15:04:03;;;;;;;;;0.75;0.75;;;;;;;;4920533;28;45663;-71
2022/11/18 15:06:28;;;;;;;;;2.00;0.67;;;;;;;;4928748;28;45419;-70
2022/11/18 15:08:54;;;;;;;;;1.50;0.00;;;;;;;;4925432;28;45384;-70
2022/11/18 15:11:19;;;;;;;;;1.33;1.33;;;;;;;;4930674;28;46139;-73
2022/11/18 15:13:45;;;;;;;;;5.67;4.33;;;;;;;;4931343;28;45363;-71
2022/11/18 15:16:13;;;;;;;;;3.00;1.00;;;;;;;;4926285;28;45837;-74
2022/11/18 15:18:39;;;;;;;;;4.00;1.00;;;;;;;;4926761;28;45898;-75
2022/11/18 15:21:04;;;;;;;;;1.00;1.00;;;;;;;;4927141;28;46268;-76